Mushin, Nigeria
Current Conditions -  °F | °C
As of 1:00 PM on Tuesday 27 Jan 2015 (Local Time) from DNMM Reporting Station
Broken Clouds Broken Clouds  
Wind Chill: 93°   Ceiling: 1500
Heat Index: 107°   Visibility: 6mi
Dew Point: 77°   Wind: 6mph
Humidity: 59%   Direction: 250°WSW
Pressure: 29.85"   Gusts: NA
Location:  6.53°N, 3.36°E
Report Text: DNMM 271200Z 25005KT 9999 BKN015 34/25 Q1011 NOSIG
Loading
Personal Weather Stations






























Interactive Weather Map New forecast layout! Learn more

10-Day Weather Forecast

Advertisements
Track Severe Weather on mobile